createdAt,value
2022-12-15T00:01:43.484Z,93.21
2022-12-15T00:11:32.909Z,93.12
2022-12-15T00:15:53.578Z,93.15
2022-12-15T00:20:14.294Z,93.33
2022-12-15T00:24:34.990Z,93.33
2022-12-15T00:28:55.559Z,93.32
2022-12-15T00:33:16.046Z,93.22
2022-12-15T00:37:36.517Z,93.16
2022-12-15T00:41:38.559Z,93.26
2022-12-15T00:45:59.134Z,93.45
2022-12-15T00:50:19.852Z,93.43
2022-12-15T00:54:40.360Z,93.51
2022-12-15T00:59:00.900Z,93.38
2022-12-15T01:03:32.047Z,93.28
2022-12-15T01:07:53.012Z,93.29
2022-12-15T01:12:13.592Z,93.43
2022-12-15T01:16:34.075Z,93.50
2022-12-15T01:26:31.361Z,93.56
2022-12-15T01:30:33.331Z,93.56
2022-12-15T01:34:35.257Z,93.65
2022-12-15T01:38:37.460Z,93.65
2022-12-15T01:42:39.410Z,93.87
2022-12-15T01:46:41.423Z,93.88
2022-12-15T01:50:50.066Z,93.88
2022-12-15T01:54:57.461Z,93.78
2022-12-15T01:59:02.734Z,93.66
2022-12-15T02:03:06.198Z,93.68
2022-12-15T02:07:16.223Z,93.72
2022-12-15T02:11:52.514Z,93.93
2022-12-15T02:16:18.289Z,93.86
2022-12-15T02:20:27.898Z,93.80
2022-12-15T02:25:02.305Z,93.89
2022-12-15T02:29:28.480Z,94.01
2022-12-15T02:33:33.180Z,94.02
2022-12-15T02:37:38.786Z,94.06
2022-12-15T02:41:46.837Z,93.89
2022-12-15T02:46:01.185Z,93.83
2022-12-15T02:50:20.028Z,93.85
2022-12-15T02:54:30.959Z,93.80
2022-12-15T02:58:41.629Z,93.47
2022-12-15T03:02:55.014Z,93.60
2022-12-15T03:07:01.111Z,93.98
2022-12-15T03:11:04.226Z,94.11
2022-12-15T03:15:06.959Z,93.56
2022-12-15T03:19:08.889Z,93.46
2022-12-15T03:23:10.948Z,93.76
2022-12-15T03:27:12.845Z,94.09
2022-12-15T03:31:15.791Z,94.00
2022-12-15T03:35:17.822Z,93.76
2022-12-15T03:39:19.693Z,93.88
2022-12-15T03:43:21.949Z,93.84
2022-12-15T03:47:23.838Z,93.65
2022-12-15T03:51:25.745Z,93.81
2022-12-15T03:55:28.473Z,93.77
2022-12-15T03:59:30.388Z,93.83
2022-12-15T04:03:32.653Z,93.88
2022-12-15T04:07:34.815Z,94.06
2022-12-15T04:11:36.822Z,94.29
2022-12-15T04:15:40.150Z,94.66
2022-12-15T04:20:00.708Z,94.69
2022-12-15T04:24:21.338Z,94.65
2022-12-15T04:28:41.818Z,94.39
2022-12-15T04:33:02.925Z,94.29
2022-12-15T04:37:27.980Z,94.19
2022-12-15T04:41:50.670Z,94.39
2022-12-15T04:46:11.149Z,94.48
2022-12-15T04:50:31.750Z,94.43
2022-12-15T04:54:52.443Z,94.31
2022-12-15T04:59:12.989Z,94.37
2022-12-15T05:03:34.053Z,94.33
2022-12-15T05:07:54.814Z,94.31
2022-12-15T05:12:15.481Z,94.39
2022-12-15T05:16:36.103Z,94.20
2022-12-15T05:20:57.177Z,94.23
2022-12-15T05:25:17.844Z,94.31
2022-12-15T05:29:39.419Z,94.43
2022-12-15T05:33:41.344Z,94.40
2022-12-15T05:37:43.326Z,94.62
2022-12-15T05:41:45.247Z,94.27
2022-12-15T05:45:47.179Z,94.05
2022-12-15T05:49:49.484Z,93.74
2022-12-15T05:53:51.393Z,93.83
2022-12-15T05:57:53.812Z,93.67
2022-12-15T06:01:55.721Z,93.68
2022-12-15T06:05:59.811Z,93.74
2022-12-15T06:10:01.776Z,93.85
2022-12-15T06:14:04.524Z,93.90
2022-12-15T06:18:06.434Z,93.94
2022-12-15T06:22:08.339Z,94.02
2022-12-15T06:26:12.169Z,94.01
2022-12-15T06:30:15.745Z,94.38
2022-12-15T06:34:17.689Z,94.38
2022-12-15T06:38:19.668Z,94.32
2022-12-15T06:42:21.575Z,94.39
2022-12-15T06:46:25.593Z,94.35
2022-12-15T06:50:27.788Z,94.56
2022-12-15T06:54:29.869Z,94.77
2022-12-15T06:58:31.809Z,94.78
2022-12-15T07:02:34.324Z,94.80
2022-12-15T07:06:38.337Z,94.72
2022-12-15T07:10:41.538Z,94.66
2022-12-15T07:14:46.396Z,94.68
2022-12-15T07:18:55.164Z,94.59
2022-12-15T07:22:57.473Z,94.60
2022-12-15T07:26:59.519Z,94.57
2022-12-15T07:31:03.943Z,94.63
2022-12-15T07:35:07.998Z,94.58
2022-12-15T07:39:09.938Z,94.56
2022-12-15T07:43:11.858Z,94.50
2022-12-15T07:47:13.819Z,94.41
2022-12-15T07:51:19.576Z,94.46
2022-12-15T07:55:37.474Z,94.61
2022-12-15T07:59:44.442Z,94.35
2022-12-15T08:03:48.593Z,94.32
2022-12-15T08:07:50.714Z,94.34
2022-12-15T08:11:52.639Z,94.33
2022-12-15T08:15:55.501Z,94.37
2022-12-15T08:19:59.002Z,94.09
2022-12-15T08:24:01.502Z,94.01
2022-12-15T08:28:04.615Z,94.17
2022-12-15T08:32:07.096Z,94.21
2022-12-15T08:36:12.024Z,93.99
2022-12-15T08:40:13.978Z,93.93
2022-12-15T08:44:16.460Z,93.92
2022-12-15T08:48:18.414Z,93.93
2022-12-15T08:52:23.340Z,94.00
2022-12-15T08:56:26.811Z,94.41
2022-12-15T09:00:28.723Z,94.14
2022-12-15T09:04:31.488Z,93.82
2022-12-15T09:08:33.989Z,93.57
2022-12-15T09:12:35.973Z,93.66
2022-12-15T09:16:38.275Z,93.68
2022-12-15T09:20:40.384Z,93.63
2022-12-15T09:24:42.348Z,93.67
2022-12-15T09:28:44.348Z,93.74
2022-12-15T09:32:52.547Z,93.79
2022-12-15T09:36:54.534Z,93.72
2022-12-15T09:40:57.079Z,93.58
2022-12-15T09:45:16.638Z,93.56
2022-12-15T09:49:39.802Z,93.55
2022-12-15T09:53:58.031Z,93.38
2022-12-15T09:58:10.904Z,92.91
2022-12-15T10:02:22.535Z,92.91
2022-12-15T10:06:37.295Z,93.15
2022-12-15T10:10:56.843Z,93.30
2022-12-15T10:15:30.898Z,93.35
2022-12-15T10:19:51.602Z,93.15
2022-12-15T10:23:58.839Z,92.75
2022-12-15T10:28:26.640Z,92.14
2022-12-15T10:32:50.655Z,92.15
2022-12-15T10:36:54.707Z,92.51
2022-12-15T10:41:00.859Z,92.30
2022-12-15T10:45:03.191Z,92.65
2022-12-15T10:49:08.306Z,92.44
2022-12-15T10:53:44.002Z,92.55
2022-12-15T10:58:02.488Z,92.70
2022-12-15T11:02:29.298Z,92.45
2022-12-15T11:06:33.641Z,92.30
2022-12-15T11:10:54.598Z,92.54
2022-12-15T11:14:56.530Z,92.44
2022-12-15T11:19:13.950Z,92.41
2022-12-15T11:23:21.935Z,92.28
2022-12-15T11:27:30.027Z,91.85
2022-12-15T11:31:38.276Z,91.97
2022-12-15T11:35:46.388Z,92.09
2022-12-15T11:39:56.703Z,92.47
2022-12-15T11:44:14.049Z,92.80
2022-12-15T11:48:20.501Z,92.43
2022-12-15T11:52:39.247Z,92.24
2022-12-15T11:56:47.624Z,92.37
2022-12-15T12:01:08.508Z,92.36
2022-12-15T12:05:13.347Z,92.38
2022-12-15T12:09:36.069Z,92.28
2022-12-15T12:14:19.677Z,92.56
2022-12-15T12:18:27.330Z,92.57
2022-12-15T12:22:31.894Z,92.65
2022-12-15T12:27:07.281Z,92.59
2022-12-15T12:31:31.682Z,92.36
2022-12-15T12:35:46.954Z,92.22
2022-12-15T12:39:53.670Z,92.29
2022-12-15T12:44:01.663Z,92.52
2022-12-15T12:48:13.501Z,92.53
2022-12-15T12:52:23.432Z,92.58
2022-12-15T12:56:33.351Z,92.37
2022-12-15T13:00:35.680Z,92.34
2022-12-15T13:04:39.676Z,92.46
2022-12-15T13:08:51.403Z,92.53
2022-12-15T13:12:58.823Z,92.45
2022-12-15T13:17:28.001Z,92.47
2022-12-15T13:21:45.269Z,92.42
2022-12-15T13:25:56.755Z,92.26
2022-12-15T13:30:08.018Z,91.84
2022-12-15T13:34:15.516Z,91.96
2022-12-15T13:38:18.556Z,92.15
2022-12-15T13:42:41.577Z,92.32
2022-12-15T13:46:48.312Z,92.05
2022-12-15T13:51:04.186Z,92.13
2022-12-15T13:55:24.087Z,92.22
2022-12-15T13:59:50.264Z,92.64
2022-12-15T14:04:05.971Z,92.56
2022-12-15T14:08:15.112Z,92.45
2022-12-15T14:12:17.069Z,92.27
2022-12-15T14:16:21.838Z,92.00
2022-12-15T14:20:33.810Z,92.10
2022-12-15T14:24:45.376Z,92.25
2022-12-15T14:28:47.438Z,92.19
2022-12-15T14:33:08.674Z,92.30
2022-12-15T14:37:17.562Z,92.43
2022-12-15T14:41:20.808Z,92.29
2022-12-15T14:45:31.224Z,92.26
2022-12-15T14:49:40.715Z,92.16
2022-12-15T14:58:33.036Z,92.03
2022-12-15T15:02:35.485Z,92.08
2022-12-15T15:06:39.809Z,91.96
2022-12-15T15:10:42.287Z,91.90
2022-12-15T15:15:06.237Z,91.93
2022-12-15T15:19:22.050Z,92.07
2022-12-15T15:23:24.060Z,92.08
2022-12-15T15:27:38.286Z,91.99
2022-12-15T15:31:42.016Z,92.19
2022-12-15T15:35:46.056Z,92.38
2022-12-15T15:39:50.738Z,92.72
2022-12-15T15:43:52.691Z,92.90
2022-12-15T15:47:58.100Z,93.04
2022-12-15T15:52:00.190Z,92.95
2022-12-15T15:56:06.088Z,92.83
2022-12-15T16:00:18.759Z,92.49
2022-12-15T16:04:21.683Z,92.24
2022-12-15T16:08:32.225Z,92.31
2022-12-15T16:12:47.052Z,92.08
2022-12-15T16:16:48.992Z,92.32
2022-12-15T16:20:52.778Z,92.45
2022-12-15T16:24:55.943Z,92.45
2022-12-15T16:28:58.367Z,92.41
2022-12-15T16:33:01.770Z,92.36
2022-12-15T16:37:04.171Z,92.41
2022-12-15T16:41:08.274Z,92.43
2022-12-15T16:45:17.802Z,92.38
2022-12-15T16:49:19.949Z,92.34
2022-12-15T16:53:26.216Z,92.49
2022-12-15T16:57:28.178Z,92.64
2022-12-15T17:01:34.164Z,92.04
2022-12-15T17:05:38.780Z,91.72
2022-12-15T17:09:40.695Z,91.69
2022-12-15T17:13:47.489Z,91.66
2022-12-15T17:17:50.151Z,91.72
2022-12-15T17:21:53.532Z,91.49
2022-12-15T17:26:21.150Z,91.62
2022-12-15T17:30:18.221Z,91.33
2022-12-15T17:34:33.945Z,90.53
2022-12-15T17:38:35.876Z,90.14
2022-12-15T17:42:38.042Z,89.60
2022-12-15T17:46:40.022Z,89.46
2022-12-15T17:50:42.766Z,89.76
2022-12-15T17:54:44.851Z,89.59
2022-12-15T17:58:46.925Z,89.67
2022-12-15T18:02:50.083Z,89.46
2022-12-15T18:06:57.976Z,89.26
2022-12-15T18:11:03.726Z,89.57
2022-12-15T18:15:21.273Z,89.45
2022-12-15T18:19:23.386Z,88.97
2022-12-15T18:23:32.466Z,88.94
2022-12-15T18:27:34.815Z,89.01
2022-12-15T18:31:36.767Z,88.68
2022-12-15T18:35:41.732Z,88.59
2022-12-15T18:39:45.610Z,89.21
2022-12-15T18:43:47.553Z,88.75
2022-12-15T18:47:51.109Z,88.21
2022-12-15T18:51:53.101Z,88.06
2022-12-15T18:55:56.105Z,88.71
2022-12-15T19:00:15.180Z,89.09
2022-12-15T19:04:17.033Z,90.06
2022-12-15T19:08:24.830Z,90.84
2022-12-15T19:12:26.815Z,90.86
2022-12-15T19:16:52.284Z,91.08
2022-12-15T19:21:12.995Z,91.00
2022-12-15T19:25:25.965Z,90.58
2022-12-15T19:29:28.463Z,90.10
2022-12-15T19:33:30.781Z,89.71
2022-12-15T19:37:35.272Z,89.69
2022-12-15T19:41:37.862Z,89.32
2022-12-15T19:45:39.832Z,89.24
2022-12-15T19:49:43.078Z,89.37
2022-12-15T19:53:46.560Z,89.57
2022-12-15T19:57:48.490Z,89.13
2022-12-15T20:01:53.588Z,89.23
2022-12-15T20:05:58.105Z,88.81
2022-12-15T20:10:00.386Z,89.64
2022-12-15T20:14:08.260Z,89.85
2022-12-15T20:18:10.780Z,89.80
2022-12-15T20:22:15.727Z,89.53
2022-12-15T20:26:18.686Z,88.99
2022-12-15T20:30:23.268Z,87.84
2022-12-15T20:34:25.509Z,87.34
2022-12-15T20:38:33.195Z,88.01
2022-12-15T20:42:35.193Z,88.59
2022-12-15T20:46:37.261Z,88.52
2022-12-15T20:50:45.783Z,88.59
2022-12-15T20:54:50.286Z,88.82
2022-12-15T20:58:54.107Z,88.64
2022-12-15T21:02:56.174Z,89.35
2022-12-15T21:06:58.335Z,89.13
2022-12-15T21:11:07.162Z,89.36
2022-12-15T21:15:18.419Z,89.61
2022-12-15T21:19:22.857Z,89.91
2022-12-15T21:23:31.394Z,90.45
2022-12-15T21:27:33.315Z,90.77
2022-12-15T21:31:35.239Z,90.72
2022-12-15T21:35:39.361Z,90.70
2022-12-15T21:39:41.322Z,90.57
2022-12-15T21:43:43.789Z,90.64
2022-12-15T21:48:05.804Z,90.27
2022-12-15T21:52:09.114Z,89.88
2022-12-15T21:56:15.873Z,89.55
2022-12-15T22:00:19.130Z,88.73
2022-12-15T22:04:27.924Z,87.95
2022-12-15T22:08:30.175Z,87.92
2022-12-15T22:12:32.391Z,88.50
2022-12-15T22:16:34.310Z,89.21
2022-12-15T22:20:36.259Z,89.21
2022-12-15T22:24:38.874Z,89.62
2022-12-15T22:28:40.824Z,90.15
2022-12-15T22:32:43.020Z,90.46
2022-12-15T22:36:45.468Z,90.14
2022-12-15T22:40:49.680Z,90.37
2022-12-15T22:44:53.210Z,90.62
2022-12-15T22:48:56.914Z,90.84
2022-12-15T22:52:59.886Z,90.74
2022-12-15T22:57:04.948Z,90.35
2022-12-15T23:01:07.190Z,90.30
2022-12-15T23:05:11.623Z,90.09
2022-12-15T23:09:13.675Z,90.18
2022-12-15T23:13:15.556Z,89.51
2022-12-15T23:17:17.424Z,88.66
2022-12-15T23:21:20.975Z,87.82
2022-12-15T23:25:22.941Z,87.68
2022-12-15T23:29:24.827Z,88.36
2022-12-15T23:33:28.410Z,88.28
2022-12-15T23:37:30.367Z,87.92
2022-12-15T23:41:32.554Z,88.44
2022-12-15T23:45:34.473Z,88.76
2022-12-15T23:49:36.321Z,89.04
2022-12-15T23:53:38.752Z,89.47
2022-12-15T23:57:40.745Z,89.85
